»·PEaware :: CCA986 KSFO-ZBAA

CCA986 :: KSFO-ZBAA

FLIGHT INFORMATION

Flight Status: Arrived
Operator:
Air China
More flights by this operator :: More flights under this callsign
Pilot: Cullen C. (7783)
Aircraft: Unknown
(B748)
More flights by this aircraft type
Origin: KSFO San Francisco Intl
United States
Destination: ZBAA Beijing Capital
China
More flights between these airports :: More routes between these airports
Route: GNNRR2 AMAKR BOXER B453 KANUA B453 MDO J804R TED J111 UNK FDV YUREE VALDA G212 ABINA G212 ARNAP R213 GOPNA R213 MAGIT R213 JMU G212 DABMA W74 SABEM G332 GITUM GIT01A
File this flight plan on PilotEdge
Remarks:
Altitude:
(Current/Filed)
30,000ft
Speed:
(Current/Filed)
510kts
Departed: 07-Jul-17 07:02 PM
Arrived: 08-Jul-17 10:05 AM
Distance/Time
Traveled:
5123nm/15:03
Distance/Time
To Go:
Arrived

Flight Plot

Page will automatically refresh every two minutes.

Flight plan parsing failed; only flown route is shown


Map Options




Map Legend


Flown Route
Filed Route
Departure Airport
Arrival Airport
Navaid (VOR, NDB)
Fix

Horizontal Profiles

Position Reports

Time Latitude Longitude Heading Altitude Ground
Speed
07-Jul-17 18:12 37.612203 -122.388914 298 28ft 0kts
07-Jul-17 18:13 37.612203 -122.388914 298 28ft 0kts
07-Jul-17 18:14 37.612203 -122.388914 298 28ft 0kts
07-Jul-17 18:15 37.612203 -122.388914 298 28ft 0kts
07-Jul-17 18:16 37.612203 -122.388914 298 28ft 0kts
07-Jul-17 18:17 37.612203 -122.388914 298 28ft 0kts
07-Jul-17 18:18 37.612203 -122.388914 298 28ft 0kts
07-Jul-17 18:19 37.612203 -122.388914 298 28ft 0kts
07-Jul-17 18:20 37.612203 -122.388914 298 28ft 0kts
07-Jul-17 18:21 37.612203 -122.388914 298 28ft 0kts
07-Jul-17 18:22 37.612203 -122.388914 298 28ft 0kts
07-Jul-17 18:23 37.612203 -122.388914 298 28ft 0kts
07-Jul-17 18:24 37.612203 -122.388914 298 28ft 0kts
07-Jul-17 18:25 37.612203 -122.388914 298 28ft 0kts
07-Jul-17 18:26 37.612203 -122.388914 298 28ft 0kts
07-Jul-17 18:27 37.612203 -122.388914 298 28ft 0kts
07-Jul-17 18:28 37.612203 -122.388914 298 28ft 0kts
07-Jul-17 18:29 37.612203 -122.388914 298 28ft 0kts
07-Jul-17 18:30 37.612203 -122.388914 298 28ft 0kts
07-Jul-17 18:31 37.612203 -122.388914 298 28ft 0kts
07-Jul-17 18:32 37.612203 -122.388914 298 28ft 0kts
07-Jul-17 18:33 37.612203 -122.388914 298 28ft 0kts
07-Jul-17 18:34 37.612203 -122.388914 298 28ft 0kts
07-Jul-17 18:35 37.612203 -122.388914 298 28ft 0kts
07-Jul-17 18:36 37.612203 -122.388914 298 28ft 0kts
07-Jul-17 18:37 37.612203 -122.388914 298 28ft 0kts
07-Jul-17 18:38 37.612203 -122.388914 298 28ft 0kts
07-Jul-17 18:39 37.612203 -122.388914 298 28ft 0kts
07-Jul-17 18:40 37.612203 -122.388914 298 28ft 0kts
07-Jul-17 18:41 37.612203 -122.388914 298 28ft 0kts
07-Jul-17 18:42 37.612203 -122.388914 298 28ft 0kts
07-Jul-17 18:43 37.612203 -122.388914 298 28ft 0kts
07-Jul-17 18:44 37.612203 -122.388914 298 28ft 0kts
07-Jul-17 18:45 37.612203 -122.388914 298 28ft 0kts
07-Jul-17 18:46 37.612203 -122.388914 298 28ft 0kts
07-Jul-17 18:47 37.612203 -122.388914 298 28ft 0kts
07-Jul-17 18:48 37.612203 -122.388914 298 28ft 0kts
07-Jul-17 18:49 37.612203 -122.388914 298 28ft 0kts
07-Jul-17 18:50 37.612203 -122.388914 298 28ft 0kts
07-Jul-17 18:51 37.612203 -122.388914 298 28ft 0kts
07-Jul-17 18:52 37.612086 -122.388638 298 28ft 3kts
07-Jul-17 18:53 37.611867 -122.387825 6 28ft 1kts
07-Jul-17 18:54 37.611840 -122.387845 22 28ft 0kts
07-Jul-17 18:55 37.611840 -122.387845 22 28ft 0kts
07-Jul-17 18:56 37.611904 -122.387806 28 28ft 1kts
07-Jul-17 18:57 37.611300 -122.386296 117 28ft 9kts
07-Jul-17 18:58 37.610927 -122.383457 33 28ft 10kts
07-Jul-17 18:59 37.614075 -122.381353 29 28ft 15kts
07-Jul-17 19:00 37.617875 -122.378268 62 28ft 15kts
07-Jul-17 19:01 37.616437 -122.373285 118 28ft 16kts
07-Jul-17 19:02 37.613781 -122.367924 126 28ft 19kts
07-Jul-17 19:03 37.611089 -122.361690 118 28ft 19kts
07-Jul-17 19:04 37.612538 -122.360286 297 28ft 31kts
07-Jul-17 19:05 37.631065 -122.402188 299 736ft 182kts
07-Jul-17 19:06 37.656509 -122.458644 295 1766ft 187kts
07-Jul-17 19:07 37.683545 -122.516317 304 2776ft 199kts
07-Jul-17 19:08 37.718930 -122.577592 308 3112ft 247kts
07-Jul-17 19:09 37.761206 -122.649857 306 5034ft 259kts
07-Jul-17 19:10 37.804200 -122.723990 304 6936ft 269kts
07-Jul-17 19:11 37.861194 -122.789380 323 8531ft 289kts
07-Jul-17 19:12 37.929725 -122.846282 324 10162ft 301kts
07-Jul-17 19:13 38.006375 -122.909780 325 10948ft 349kts
07-Jul-17 19:14 38.087981 -122.977674 325 12812ft 356kts
07-Jul-17 19:15 38.170140 -123.045592 325 14362ft 366kts
07-Jul-17 19:16 38.256122 -123.116987 324 15770ft 375kts
07-Jul-17 19:17 38.344149 -123.190896 324 17067ft 385kts
07-Jul-17 19:18 38.434134 -123.266834 324 18333ft 392kts
07-Jul-17 19:19 38.525336 -123.344036 324 19490ft 398kts
07-Jul-17 19:20 38.617980 -123.422668 324 20537ft 404kts
07-Jul-17 19:21 38.711801 -123.502567 324 21531ft 410kts
07-Jul-17 19:22 38.807113 -123.584032 325 22453ft 415kts
07-Jul-17 19:23 38.902835 -123.666184 324 23310ft 419kts
07-Jul-17 19:24 39.000070 -123.750230 327 24089ft 424kts
07-Jul-17 19:25 39.105493 -123.819075 334 24815ft 429kts
07-Jul-17 19:26 39.212154 -123.881796 333 25460ft 433kts
07-Jul-17 19:27 39.321213 -123.948215 333 26103ft 435kts
07-Jul-17 19:28 39.430337 -124.016075 332 26651ft 439kts
07-Jul-17 19:29 39.539922 -124.084538 332 27020ft 442kts
07-Jul-17 19:30 39.650373 -124.153723 332 27877ft 445kts
07-Jul-17 19:31 39.761840 -124.223776 332 28794ft 448kts
07-Jul-17 19:32 39.874625 -124.294926 332 29687ft 453kts
07-Jul-17 19:33 39.987920 -124.366657 332 30106ft 456kts
07-Jul-17 19:34 40.102329 -124.439377 332 30166ft 466kts
07-Jul-17 19:35 40.219760 -124.513521 333 30198ft 482kts
07-Jul-17 19:36 40.342209 -124.591505 332 30202ft 503kts
07-Jul-17 19:37 40.469019 -124.673204 331 30187ft 512kts
07-Jul-17 19:38 40.595802 -124.756448 331 30185ft 512kts
07-Jul-17 19:39 40.701759 -124.825537 332 30159ft 513kts
07-Jul-17 19:40 40.850957 -124.922586 332 30159ft 512kts
07-Jul-17 19:41 40.978490 -125.005971 332 30159ft 513kts
07-Jul-17 19:42 41.103963 -125.088411 332 30159ft 512kts
07-Jul-17 19:43 41.231229 -125.171577 333 30159ft 520kts
07-Jul-17 19:44 41.339071 -125.242561 332 30156ft 520kts
07-Jul-17 19:45 41.467759 -125.328190 332 30157ft 520kts
07-Jul-17 19:46 41.618208 -125.428828 332 30158ft 520kts
07-Jul-17 19:47 41.725891 -125.501137 332 30159ft 521kts
07-Jul-17 19:48 41.854944 -125.588151 332 30159ft 521kts
07-Jul-17 19:49 42.003839 -125.689397 331 30160ft 521kts
07-Jul-17 19:50 42.110555 -125.763174 331 30159ft 522kts
07-Jul-17 19:51 42.240161 -125.851138 332 30156ft 522kts
07-Jul-17 19:52 42.369436 -125.939404 332 30156ft 522kts
07-Jul-17 19:53 42.498604 -126.028607 332 30157ft 523kts
07-Jul-17 19:54 42.627239 -126.117804 332 30174ft 522kts
07-Jul-17 19:55 42.756766 -126.207126 333 30213ft 523kts
07-Jul-17 19:56 42.887646 -126.292234 334 30213ft 523kts
07-Jul-17 19:57 43.018388 -126.377211 333 30214ft 523kts
07-Jul-17 19:58 43.148242 -126.462685 333 30208ft 523kts
07-Jul-17 19:59 43.279091 -126.548624 333 30209ft 524kts
07-Jul-17 20:00 43.410039 -126.636049 333 30210ft 524kts
07-Jul-17 20:01 43.539407 -126.725562 331 30210ft 524kts
07-Jul-17 20:02 43.669435 -126.815369 332 30211ft 524kts
07-Jul-17 20:03 43.800151 -126.904115 332 30212ft 525kts
07-Jul-17 20:04 43.930728 -126.993036 332 30213ft 525kts
07-Jul-17 20:05 44.061405 -127.082705 332 30214ft 525kts
07-Jul-17 20:06 44.192046 -127.172269 333 30209ft 526kts
07-Jul-17 20:07 44.322651 -127.261985 332 30236ft 526kts
07-Jul-17 20:08 44.453420 -127.353016 332 30237ft 526kts
07-Jul-17 20:09 44.584139 -127.444590 332 30238ft 526kts
07-Jul-17 20:10 44.714646 -127.536414 332 30239ft 526kts
07-Jul-17 20:11 44.845121 -127.628661 332 30240ft 527kts
07-Jul-17 20:12 44.975375 -127.722090 331 30241ft 527kts
07-Jul-17 20:13 45.105322 -127.815928 332 30241ft 527kts
07-Jul-17 20:14 45.235959 -127.908815 332 30235ft 527kts
07-Jul-17 20:15 45.366399 -128.002394 332 30236ft 527kts
07-Jul-17 20:16 45.496804 -128.097059 332 30262ft 526kts
07-Jul-17 20:17 45.627987 -128.192854 337 30281ft 535kts
07-Jul-17 20:18 45.760178 -128.289702 337 30268ft 535kts
07-Jul-17 20:19 45.892397 -128.387120 337 30269ft 535kts
07-Jul-17 20:20 46.024104 -128.484720 337 30271ft 536kts
07-Jul-17 20:21 46.156248 -128.582984 337 30268ft 536kts
07-Jul-17 20:22 46.286747 -128.680041 336 30260ft 537kts
07-Jul-17 20:23 46.418654 -128.780628 336 30262ft 537kts
07-Jul-17 20:24 46.550287 -128.880692 336 30094ft 537kts
07-Jul-17 20:25 46.682653 -128.981307 336 29996ft 538kts
07-Jul-17 20:26 46.814509 -129.082211 336 29996ft 538kts
07-Jul-17 20:27 46.946613 -129.183934 336 29998ft 538kts
07-Jul-17 20:28 47.078685 -129.286171 336 29999ft 538kts
07-Jul-17 20:29 47.210473 -129.388112 336 29996ft 538kts
07-Jul-17 20:30 47.342808 -129.491221 336 29997ft 539kts
07-Jul-17 20:31 47.474342 -129.594988 335 29999ft 539kts
07-Jul-17 20:32 47.605944 -129.699820 334 29992ft 540kts
07-Jul-17 20:33 47.737404 -129.805530 335 29994ft 539kts
07-Jul-17 20:34 47.869300 -129.910950 335 29996ft 540kts
07-Jul-17 20:35 48.001374 -130.017009 335 29997ft 540kts
07-Jul-17 20:36 48.133334 -130.123483 328 29997ft 545kts
07-Jul-17 20:37 48.262421 -130.227672 326 29998ft 529kts
07-Jul-17 20:38 48.391124 -130.333046 326 29992ft 529kts
07-Jul-17 20:39 48.520273 -130.439446 326 29993ft 529kts
07-Jul-17 20:40 48.648870 -130.546016 326 29994ft 529kts
07-Jul-17 20:41 48.777619 -130.653390 326 29996ft 530kts
07-Jul-17 20:42 48.905728 -130.761873 326 30000ft 529kts
07-Jul-17 20:43 49.034211 -130.870339 326 30001ft 530kts
07-Jul-17 20:44 49.161164 -130.978029 326 29990ft 530kts
07-Jul-17 20:45 49.290175 -131.086965 326 29992ft 531kts
07-Jul-17 20:46 49.419088 -131.197523 326 29993ft 531kts
07-Jul-17 20:47 49.547343 -131.308519 326 29994ft 532kts
07-Jul-17 20:48 49.675435 -131.419946 326 30856ft 530kts
07-Jul-17 20:49 49.802648 -131.531213 326 31756ft 528kts
07-Jul-17 20:50 49.930013 -131.643334 326 31996ft 527kts
07-Jul-17 20:51 50.056343 -131.756496 325 32002ft 527kts
07-Jul-17 20:52 50.181339 -131.868618 325 31991ft 527kts
07-Jul-17 20:53 50.306299 -131.986969 322 31992ft 526kts
07-Jul-17 20:54 50.429298 -132.109770 322 31993ft 526kts
07-Jul-17 20:55 50.552481 -132.232256 323 31994ft 527kts
07-Jul-17 20:56 50.676009 -132.355161 323 31995ft 527kts
07-Jul-17 20:57 50.799023 -132.478453 323 31997ft 527kts
07-Jul-17 20:58 50.922378 -132.602870 323 31998ft 527kts
07-Jul-17 20:59 51.045745 -132.728801 322 32002ft 527kts
07-Jul-17 21:00 51.166391 -132.852841 322 31991ft 527kts
07-Jul-17 21:01 51.289685 -132.978601 322 31992ft 528kts
07-Jul-17 21:02 51.412900 -133.106156 322 31994ft 528kts
07-Jul-17 21:03 51.535420 -133.234244 322 31994ft 529kts
07-Jul-17 21:04 51.658463 -133.363598 322 31995ft 529kts
07-Jul-17 21:05 51.781131 -133.493354 322 31997ft 529kts
07-Jul-17 21:06 51.903274 -133.623441 322 31998ft 529kts
07-Jul-17 21:07 52.025505 -133.755244 321 32002ft 528kts
07-Jul-17 21:08 52.146912 -133.886807 322 31988ft 529kts
07-Jul-17 21:09 52.269818 -134.018701 322 31991ft 529kts
07-Jul-17 21:10 52.391790 -134.151706 322 31992ft 529kts
07-Jul-17 21:11 52.513789 -134.286209 322 31994ft 529kts
07-Jul-17 21:12 52.635642 -134.421318 322 31995ft 530kts
07-Jul-17 21:13 52.757317 -134.557090 322 31997ft 530kts
07-Jul-17 21:14 52.879105 -134.694140 321 32000ft 529kts
07-Jul-17 21:15 53.000077 -134.831755 321 32001ft 529kts
07-Jul-17 21:16 53.120988 -134.969926 321 31991ft 529kts
07-Jul-17 21:17 53.242044 -135.107445 321 31991ft 530kts
07-Jul-17 21:18 53.363364 -135.247078 321 31992ft 529kts
07-Jul-17 21:19 53.483696 -135.387272 321 31993ft 529kts
07-Jul-17 21:20 53.604090 -135.528491 321 31995ft 529kts
07-Jul-17 21:21 53.724299 -135.670470 320 31997ft 529kts
07-Jul-17 21:22 53.844084 -135.814087 320 31999ft 528kts
07-Jul-17 21:23 53.963923 -135.957464 320 32000ft 528kts
07-Jul-17 21:24 54.077339 -136.112236 312 32002ft 523kts
07-Jul-17 21:25 54.180922 -136.277640 312 31990ft 523kts
07-Jul-17 21:26 54.287642 -136.445753 312 31991ft 522kts
07-Jul-17 21:27 54.394622 -136.613703 313 31992ft 522kts
07-Jul-17 21:28 54.500754 -136.782530 311 31995ft 521kts
07-Jul-17 21:29 54.606602 -136.952495 312 31996ft 521kts
07-Jul-17 21:30 54.712277 -137.122586 312 31997ft 520kts
07-Jul-17 21:31 54.817419 -137.292945 312 32004ft 520kts
07-Jul-17 21:32 54.922229 -137.464073 311 32205ft 519kts
07-Jul-17 21:33 55.027020 -137.636590 311 32215ft 519kts
07-Jul-17 21:34 55.130878 -137.809548 311 32204ft 518kts
07-Jul-17 21:35 55.235145 -137.981894 311 32207ft 517kts
07-Jul-17 21:36 55.339050 -138.155963 310 32208ft 517kts
07-Jul-17 21:37 55.442279 -138.331139 310 32208ft 516kts
07-Jul-17 21:38 55.544844 -138.506544 310 32209ft 516kts
07-Jul-17 21:39 55.646227 -138.681215 309 32213ft 514kts
07-Jul-17 21:40 55.747758 -138.858678 309 32214ft 513kts
07-Jul-17 21:41 55.849073 -139.036388 309 32215ft 513kts
07-Jul-17 21:42 55.950368 -139.214874 309 32215ft 513kts
07-Jul-17 21:43 56.051231 -139.393926 309 32216ft 512kts
07-Jul-17 21:44 56.151933 -139.573289 310 32205ft 512kts
07-Jul-17 21:45 56.252703 -139.753104 308 32208ft 510kts
07-Jul-17 21:46 56.352009 -139.934428 308 32209ft 510kts
07-Jul-17 21:47 56.450971 -140.116189 308 32209ft 509kts
07-Jul-17 21:48 56.549897 -140.298926 308 32210ft 509kts
07-Jul-17 21:49 56.648170 -140.481896 308 32211ft 508kts
07-Jul-17 21:50 56.746400 -140.666264 307 32213ft 507kts
07-Jul-17 21:51 56.843531 -140.851194 307 32215ft 506kts
07-Jul-17 21:52 56.940704 -141.037161 307 32216ft 506kts
07-Jul-17 21:53 57.037303 -141.222813 308 32216ft 505kts
07-Jul-17 21:54 57.135951 -141.413714 312 32213ft 526kts
07-Jul-17 21:55 57.238698 -141.611462 312 32228ft 547kts
07-Jul-17 21:56 57.342313 -141.815934 311 32208ft 548kts
07-Jul-17 21:57 57.445804 -142.023079 311 32210ft 548kts
07-Jul-17 21:58 57.548959 -142.230156 311 32212ft 548kts
07-Jul-17 21:59 57.634894 -142.403911 311 32214ft 548kts
07-Jul-17 22:00 57.754819 -142.648726 312 32216ft 548kts
07-Jul-17 22:01 57.840006 -142.825231 310 32213ft 549kts
07-Jul-17 22:02 57.941386 -143.036815 311 32210ft 549kts
07-Jul-17 22:03 58.043449 -143.250782 311 32190ft 549kts
07-Jul-17 22:04 58.142885 -143.460388 311 32181ft 549kts
07-Jul-17 22:05 58.244931 -143.675294 310 32181ft 549kts
07-Jul-17 22:06 58.345731 -143.893510 310 32181ft 550kts
07-Jul-17 22:07 58.445730 -144.111992 310 32183ft 550kts
07-Jul-17 22:08 58.545948 -144.332043 310 32185ft 550kts
07-Jul-17 22:09 58.662697 -144.591030 310 32188ft 550kts
07-Jul-17 22:10 58.745193 -144.776393 309 32185ft 550kts
07-Jul-17 22:11 58.843838 -145.000597 309 32187ft 550kts
07-Jul-17 22:12 58.942801 -145.226483 310 32189ft 550kts
07-Jul-17 22:13 59.040951 -145.452467 310 32191ft 551kts
07-Jul-17 22:14 59.135982 -145.673011 310 32180ft 550kts
07-Jul-17 22:15 59.233528 -145.900435 309 32180ft 548kts
07-Jul-17 22:16 59.330150 -146.129903 309 32182ft 548kts
07-Jul-17 22:17 59.426832 -146.360637 312 32182ft 548kts
07-Jul-17 22:18 59.534045 -146.572769 318 32187ft 548kts
07-Jul-17 22:19 59.643206 -146.776424 316 32184ft 548kts
07-Jul-17 22:20 59.751439 -146.988136 315 32185ft 548kts
07-Jul-17 22:21 59.859138 -147.201639 316 32187ft 548kts
07-Jul-17 22:22 59.966677 -147.415770 316 32189ft 548kts
07-Jul-17 22:23 60.073413 -147.630320 316 32140ft 547kts
07-Jul-17 22:24 60.163240 -147.812304 315 32126ft 547kts
07-Jul-17 22:25 60.269924 -148.029523 315 32128ft 547kts
07-Jul-17 22:26 60.375899 -148.248863 315 32130ft 547kts
07-Jul-17 22:27 60.481119 -148.469103 315 32132ft 547kts
07-Jul-17 22:28 60.583915 -148.685676 314 32129ft 547kts
07-Jul-17 22:29 60.688280 -148.909296 314 32130ft 547kts
07-Jul-17 22:30 60.792069 -149.133159 315 32132ft 547kts
07-Jul-17 22:31 60.895769 -149.358369 315 32134ft 547kts
07-Jul-17 22:32 60.999233 -149.585518 315 32110ft 547kts
07-Jul-17 22:33 61.099848 -149.809326 314 32105ft 547kts
07-Jul-17 22:34 61.197266 -150.032564 310 32102ft 548kts
07-Jul-17 22:35 61.286682 -150.287456 305 32103ft 549kts
07-Jul-17 22:36 61.374340 -150.547240 307 32105ft 549kts
07-Jul-17 22:37 61.461499 -150.800291 306 32101ft 549kts
07-Jul-17 22:38 61.549821 -151.059262 306 32103ft 549kts
07-Jul-17 22:39 61.637460 -151.318961 306 32083ft 549kts
07-Jul-17 22:40 61.725156 -151.581726 306 32080ft 549kts
07-Jul-17 22:41 61.810880 -151.842317 304 32077ft 550kts
07-Jul-17 22:42 61.897142 -152.107755 304 32079ft 549kts
07-Jul-17 22:43 61.983524 -152.375383 304 32081ft 549kts
07-Jul-17 22:44 62.068944 -152.643090 304 32083ft 549kts
07-Jul-17 22:45 62.152851 -152.907772 304 32073ft 549kts
07-Jul-17 22:46 62.237723 -153.178502 303 32074ft 549kts
07-Jul-17 22:47 62.321456 -153.451404 303 32076ft 549kts
07-Jul-17 22:48 62.404275 -153.724408 302 32072ft 549kts
07-Jul-17 22:49 62.486897 -154.000778 302 32075ft 549kts
07-Jul-17 22:50 62.569255 -154.278414 302 32077ft 549kts
07-Jul-17 22:51 62.651115 -154.557700 302 32079ft 549kts
07-Jul-17 22:52 62.731507 -154.836040 301 32077ft 549kts
07-Jul-17 22:53 62.811846 -155.118076 301 32078ft 548kts
07-Jul-17 22:54 62.891961 -155.401326 301 32080ft 548kts
07-Jul-17 22:55 62.969148 -155.686157 295 32082ft 548kts
07-Jul-17 22:56 63.031729 -155.991443 291 32080ft 547kts
07-Jul-17 22:57 63.091382 -156.297806 292 32100ft 547kts
07-Jul-17 22:58 63.153371 -156.600709 293 32102ft 547kts
07-Jul-17 22:59 63.215197 -156.906523 291 32099ft 546kts
07-Jul-17 23:00 63.275369 -157.215353 291 32101ft 546kts
07-Jul-17 23:01 63.334821 -157.524972 291 32103ft 546kts
07-Jul-17 23:02 63.393610 -157.835512 290 32101ft 546kts
07-Jul-17 23:03 63.451530 -158.146930 290 32024ft 546kts
07-Jul-17 23:04 63.509035 -158.459981 290 32022ft 546kts
07-Jul-17 23:05 63.564990 -158.769505 289 32020ft 546kts
07-Jul-17 23:06 63.621100 -159.086177 289 32023ft 546kts
07-Jul-17 23:07 63.676527 -159.402970 289 32024ft 546kts
07-Jul-17 23:08 63.731021 -159.719285 288 32045ft 545kts
07-Jul-17 23:09 63.784770 -160.037877 288 32051ft 545kts
07-Jul-17 23:10 63.838080 -160.358016 288 32053ft 544kts
07-Jul-17 23:11 63.890654 -160.677881 287 32053ft 544kts
07-Jul-17 23:12 63.939089 -161.002440 285 32052ft 543kts
07-Jul-17 23:13 63.985448 -161.329032 285 32054ft 543kts
07-Jul-17 23:14 64.031615 -161.654252 285 32082ft 543kts
07-Jul-17 23:15 64.077255 -161.981292 284 32081ft 543kts
07-Jul-17 23:16 64.122373 -162.307885 285 32053ft 543kts
07-Jul-17 23:17 64.167844 -162.636674 285 32048ft 543kts
07-Jul-17 23:18 64.211262 -162.966600 283 32045ft 542kts
07-Jul-17 23:19 64.253632 -163.297086 283 32047ft 542kts
07-Jul-17 23:20 64.295520 -163.628843 283 32049ft 542kts
07-Jul-17 23:21 64.336338 -163.959810 282 32046ft 541kts
07-Jul-17 23:22 64.376733 -164.294304 282 32048ft 541kts
07-Jul-17 23:23 64.416061 -164.626443 282 32048ft 541kts
07-Jul-17 23:24 64.454678 -164.960888 281 32021ft 540kts
07-Jul-17 23:25 64.492217 -165.298258 277 32017ft 538kts
07-Jul-17 23:26 64.500492 -165.640362 264 32026ft 530kts
07-Jul-17 23:27 64.494356 -165.979952 263 32021ft 530kts
07-Jul-17 23:28 64.491509 -166.322234 265 32022ft 531kts
07-Jul-17 23:29 64.489639 -166.662819 264 32024ft 530kts
07-Jul-17 23:30 64.486643 -167.003876 264 32048ft 530kts
07-Jul-17 23:31 64.482628 -167.344465 264 32049ft 529kts
07-Jul-17 23:32 64.477854 -167.683373 263 32049ft 529kts
07-Jul-17 23:33 64.472357 -168.024146 263 32048ft 528kts
07-Jul-17 23:34 64.466159 -168.360715 263 32012ft 519kts
07-Jul-17 23:35 64.460122 -168.650253 262 32023ft 520kts
07-Jul-17 23:36 64.460122 -168.650253 262 32023ft 520kts
07-Jul-17 23:37 64.460122 -168.650253 262 32023ft 520kts
07-Jul-17 23:38 64.460122 -168.650253 262 32023ft 520kts
07-Jul-17 23:39 64.460122 -168.650253 262 32023ft 520kts
07-Jul-17 23:40 64.460122 -168.650253 262 32023ft 520kts
07-Jul-17 23:41 64.460122 -168.650253 262 32023ft 520kts
07-Jul-17 23:42 64.460122 -168.650253 262 32023ft 520kts
07-Jul-17 23:43 64.460122 -168.650253 262 32023ft 520kts
07-Jul-17 23:44 64.460122 -168.650253 262 32023ft 520kts
07-Jul-17 23:45 64.460122 -168.650253 262 32023ft 520kts
07-Jul-17 23:46 64.460122 -168.650253 262 32023ft 520kts
07-Jul-17 23:47 64.460122 -168.650253 262 32023ft 520kts
07-Jul-17 23:48 64.460122 -168.650253 262 32023ft 520kts
07-Jul-17 23:49 64.460122 -168.650253 262 32023ft 520kts
07-Jul-17 23:50 64.460122 -168.650253 262 32023ft 520kts
07-Jul-17 23:51 64.460122 -168.650253 262 32023ft 520kts
07-Jul-17 23:52 64.460122 -168.650253 262 32023ft 520kts
07-Jul-17 23:53 64.460122 -168.650253 262 32023ft 520kts
07-Jul-17 23:54 64.460122 -168.650253 262 32023ft 520kts
07-Jul-17 23:55 64.460122 -168.650253 262 32023ft 520kts
07-Jul-17 23:56 64.460122 -168.650253 262 32023ft 520kts
07-Jul-17 23:57 64.460122 -168.650253 262 32023ft 520kts
07-Jul-17 23:58 64.460122 -168.650253 262 32023ft 520kts
07-Jul-17 23:59 64.460122 -168.650253 262 32023ft 520kts
08-Jul-17 00:00 64.460122 -168.650253 262 32023ft 520kts
08-Jul-17 00:01 64.460122 -168.650253 262 32023ft 520kts
08-Jul-17 00:02 64.460122 -168.650253 262 32023ft 520kts
08-Jul-17 00:03 64.460122 -168.650253 262 32023ft 520kts
08-Jul-17 00:04 64.460122 -168.650253 262 32023ft 520kts
08-Jul-17 00:05 64.460122 -168.650253 262 32023ft 520kts
08-Jul-17 00:06 64.460122 -168.650253 262 32023ft 520kts
08-Jul-17 00:07 64.460122 -168.650253 262 32023ft 520kts
08-Jul-17 00:08 64.460122 -168.650253 262 32023ft 520kts
08-Jul-17 00:09 64.460122 -168.650253 262 32023ft 520kts
08-Jul-17 00:10 64.460122 -168.650253 262 32023ft 520kts
08-Jul-17 00:11 64.460122 -168.650253 262 32023ft 520kts
08-Jul-17 00:12 64.460122 -168.650253 262 32023ft 520kts
08-Jul-17 00:13 64.460122 -168.650253 262 32023ft 520kts
08-Jul-17 00:14 64.460122 -168.650253 262 32023ft 520kts
08-Jul-17 00:15 64.460122 -168.650253 262 32023ft 520kts
08-Jul-17 00:16 64.460122 -168.650253 262 32023ft 520kts
08-Jul-17 00:17 64.460122 -168.650253 262 32023ft 520kts
08-Jul-17 00:18 64.460122 -168.650253 262 32023ft 520kts
08-Jul-17 00:19 64.460122 -168.650253 262 32023ft 520kts
08-Jul-17 00:20 64.460122 -168.650253 262 32023ft 520kts
08-Jul-17 00:21 64.460122 -168.650253 262 32023ft 520kts
08-Jul-17 00:22 64.460122 -168.650253 262 32023ft 520kts
08-Jul-17 00:23 64.460122 -168.650253 262 32023ft 520kts
08-Jul-17 00:24 64.460122 -168.650253 262 32023ft 520kts
08-Jul-17 00:25 64.460122 -168.650253 262 32023ft 520kts
08-Jul-17 00:26 64.460122 -168.650253 262 32023ft 520kts
08-Jul-17 00:27 64.460122 -168.650253 262 32023ft 520kts
08-Jul-17 00:28 64.460122 -168.650253 262 32023ft 520kts
08-Jul-17 00:29 64.460122 -168.650253 262 32023ft 520kts
08-Jul-17 00:30 64.460122 -168.650253 262 32023ft 520kts
08-Jul-17 00:31 64.460122 -168.650253 262 32023ft 520kts
08-Jul-17 00:32 64.460122 -168.650253 262 32023ft 520kts
08-Jul-17 00:33 64.460122 -168.650253 262 32023ft 520kts
08-Jul-17 00:34 64.460122 -168.650253 262 32023ft 520kts
08-Jul-17 00:35 64.460122 -168.650253 262 32023ft 520kts
08-Jul-17 00:36 64.460122 -168.650253 262 32023ft 520kts
08-Jul-17 00:37 64.460122 -168.650253 262 32023ft 520kts
08-Jul-17 00:38 64.460122 -168.650253 262 32023ft 520kts
08-Jul-17 00:39 64.460122 -168.650253 262 32023ft 520kts
08-Jul-17 00:40 64.460122 -168.650253 262 32023ft 520kts
08-Jul-17 00:41 64.460122 -168.650253 262 32023ft 520kts
08-Jul-17 00:42 64.460122 -168.650253 262 32023ft 520kts
08-Jul-17 00:43 64.460122 -168.650253 262 32023ft 520kts
08-Jul-17 00:44 64.460122 -168.650253 262 32023ft 520kts
08-Jul-17 00:45 64.460122 -168.650253 262 32023ft 520kts
08-Jul-17 00:46 64.460122 -168.650253 262 32023ft 520kts
08-Jul-17 00:47 64.460122 -168.650253 262 32023ft 520kts
08-Jul-17 00:48 64.460122 -168.650253 262 32023ft 520kts
08-Jul-17 00:49 64.460122 -168.650253 262 32023ft 520kts
08-Jul-17 00:50 64.460122 -168.650253 262 32023ft 520kts
08-Jul-17 00:51 64.460122 -168.650253 262 32023ft 520kts
08-Jul-17 00:52 64.460122 -168.650253 262 32023ft 520kts
08-Jul-17 00:53 64.460122 -168.650253 262 32023ft 520kts
08-Jul-17 00:54 64.460122 -168.650253 262 32023ft 520kts
08-Jul-17 00:55 64.460122 -168.650253 262 32023ft 520kts
08-Jul-17 00:56 64.460122 -168.650253 262 32023ft 520kts
08-Jul-17 00:57 64.460122 -168.650253 262 32023ft 520kts
08-Jul-17 00:58 64.460122 -168.650253 262 32023ft 520kts
08-Jul-17 00:59 64.460122 -168.650253 262 32023ft 520kts
08-Jul-17 01:00 64.460122 -168.650253 262 32023ft 520kts
08-Jul-17 01:01 64.460122 -168.650253 262 32023ft 520kts
08-Jul-17 01:02 64.460122 -168.650253 262 32023ft 520kts
08-Jul-17 01:03 64.460122 -168.650253 262 32023ft 520kts
08-Jul-17 01:04 64.460122 -168.650253 262 32023ft 520kts
08-Jul-17 01:05 64.460122 -168.650253 262 32023ft 520kts
08-Jul-17 01:06 64.460122 -168.650253 262 32023ft 520kts
08-Jul-17 01:07 64.460122 -168.650253 262 32023ft 520kts
08-Jul-17 01:08 64.460122 -168.650253 262 32023ft 520kts
08-Jul-17 01:09 64.460122 -168.650253 262 32023ft 520kts
08-Jul-17 01:10 64.460122 -168.650253 262 32023ft 520kts
08-Jul-17 01:11 64.460122 -168.650253 262 32023ft 520kts
08-Jul-17 01:12 64.460122 -168.650253 262 32023ft 520kts
08-Jul-17 01:13 64.460122 -168.650253 262 32023ft 520kts
08-Jul-17 01:14 64.460122 -168.650253 262 32023ft 520kts
08-Jul-17 01:15 64.460122 -168.650253 262 32023ft 520kts
08-Jul-17 01:16 64.460122 -168.650253 262 32023ft 520kts
08-Jul-17 01:17 64.460122 -168.650253 262 32023ft 520kts
08-Jul-17 01:18 64.460122 -168.650253 262 32023ft 520kts
08-Jul-17 01:19 64.460122 -168.650253 262 32023ft 520kts
08-Jul-17 01:20 64.460122 -168.650253 262 32023ft 520kts
08-Jul-17 01:21 64.460122 -168.650253 262 32023ft 520kts
08-Jul-17 01:22 64.460122 -168.650253 262 32023ft 520kts
08-Jul-17 01:23 64.460122 -168.650253 262 32023ft 520kts
08-Jul-17 01:24 64.460122 -168.650253 262 32023ft 520kts
08-Jul-17 01:25 64.460122 -168.650253 262 32023ft 520kts
08-Jul-17 01:26 64.460122 -168.650253 262 32023ft 520kts
08-Jul-17 01:27 64.460122 -168.650253 262 32023ft 520kts
08-Jul-17 01:28 64.460122 -168.650253 262 32023ft 520kts
08-Jul-17 01:29 64.460122 -168.650253 262 32023ft 520kts
08-Jul-17 01:30 64.460122 -168.650253 262 32023ft 520kts
08-Jul-17 01:31 64.460122 -168.650253 262 32023ft 520kts
08-Jul-17 01:32 64.460122 -168.650253 262 32023ft 520kts
08-Jul-17 01:33 64.460122 -168.650253 262 32023ft 520kts
08-Jul-17 01:34 64.460122 -168.650253 262 32023ft 520kts
08-Jul-17 01:35 64.460122 -168.650253 262 32023ft 520kts
08-Jul-17 01:36 64.460122 -168.650253 262 32023ft 520kts
08-Jul-17 01:37 64.460122 -168.650253 262 32023ft 520kts
08-Jul-17 01:38 64.460122 -168.650253 262 32023ft 520kts
08-Jul-17 01:39 64.460122 -168.650253 262 32023ft 520kts
08-Jul-17 01:40 64.460122 -168.650253 262 32023ft 520kts
08-Jul-17 01:41 64.460122 -168.650253 262 32023ft 520kts
08-Jul-17 01:42 64.460122 -168.650253 262 32023ft 520kts
08-Jul-17 01:43 64.460122 -168.650253 262 32023ft 520kts
08-Jul-17 01:44 64.460122 -168.650253 262 32023ft 520kts
08-Jul-17 01:45 64.460122 -168.650253 262 32023ft 520kts
08-Jul-17 01:46 64.460122 -168.650253 262 32023ft 520kts
08-Jul-17 01:47 64.460122 -168.650253 262 32023ft 520kts
08-Jul-17 01:48 64.460122 -168.650253 262 32023ft 520kts
08-Jul-17 01:49 64.460122 -168.650253 262 32023ft 520kts
08-Jul-17 01:50 64.460122 -168.650253 262 32023ft 520kts
08-Jul-17 01:51 64.460122 -168.650253 262 32023ft 520kts
08-Jul-17 01:52 64.460122 -168.650253 262 32023ft 520kts
08-Jul-17 01:53 64.460122 -168.650253 262 32023ft 520kts
08-Jul-17 01:54 64.460122 -168.650253 262 32023ft 520kts
08-Jul-17 01:55 64.460122 -168.650253 262 32023ft 520kts
08-Jul-17 01:56 64.460122 -168.650253 262 32023ft 520kts
08-Jul-17 01:57 64.460122 -168.650253 262 32023ft 520kts
08-Jul-17 01:58 64.460122 -168.650253 262 32023ft 520kts
08-Jul-17 01:59 64.460122 -168.650253 262 32023ft 520kts
08-Jul-17 02:00 64.460122 -168.650253 262 32023ft 520kts
08-Jul-17 02:01 64.460122 -168.650253 262 32023ft 520kts
08-Jul-17 02:02 64.460122 -168.650253 262 32023ft 520kts
08-Jul-17 02:03 64.460122 -168.650253 262 32023ft 520kts
08-Jul-17 02:04 64.460122 -168.650253 262 32023ft 520kts
08-Jul-17 02:05 64.460122 -168.650253 262 32023ft 520kts
08-Jul-17 02:06 64.460122 -168.650253 262 32023ft 520kts
08-Jul-17 02:07 64.460122 -168.650253 262 32023ft 520kts
08-Jul-17 02:08 64.460122 -168.650253 262 32023ft 520kts
08-Jul-17 02:09 64.460122 -168.650253 262 32023ft 520kts
08-Jul-17 02:10 64.460122 -168.650253 262 32023ft 520kts
08-Jul-17 02:11 64.460122 -168.650253 262 32023ft 520kts
08-Jul-17 02:12 64.460122 -168.650253 262 32023ft 520kts
08-Jul-17 02:13 64.460122 -168.650253 262 32023ft 520kts
08-Jul-17 02:14 64.460122 -168.650253 262 32023ft 520kts
08-Jul-17 02:15 64.460122 -168.650253 262 32023ft 520kts
08-Jul-17 02:16 64.460122 -168.650253 262 32023ft 520kts
08-Jul-17 02:17 64.460122 -168.650253 262 32023ft 520kts
08-Jul-17 02:18 64.460122 -168.650253 262 32023ft 520kts
08-Jul-17 02:19 64.460122 -168.650253 262 32023ft 520kts
08-Jul-17 02:20 64.460122 -168.650253 262 32023ft 520kts
08-Jul-17 02:21 64.460122 -168.650253 262 32023ft 520kts
08-Jul-17 02:22 64.460122 -168.650253 262 32023ft 520kts
08-Jul-17 02:23 64.460122 -168.650253 262 32023ft 520kts
08-Jul-17 02:24 64.460122 -168.650253 262 32023ft 520kts
08-Jul-17 02:25 64.460122 -168.650253 262 32023ft 520kts
08-Jul-17 02:26 64.460122 -168.650253 262 32023ft 520kts
08-Jul-17 02:27 64.460122 -168.650253 262 32023ft 520kts
08-Jul-17 02:28 64.460122 -168.650253 262 32023ft 520kts
08-Jul-17 02:29 64.460122 -168.650253 262 32023ft 520kts
08-Jul-17 02:30 64.460122 -168.650253 262 32023ft 520kts
08-Jul-17 02:31 64.460122 -168.650253 262 32023ft 520kts
08-Jul-17 02:32 64.460122 -168.650253 262 32023ft 520kts
08-Jul-17 02:33 64.460122 -168.650253 262 32023ft 520kts
08-Jul-17 02:34 64.460122 -168.650253 262 32023ft 520kts
08-Jul-17 02:35 64.460122 -168.650253 262 32023ft 520kts
08-Jul-17 02:36 64.460122 -168.650253 262 32023ft 520kts
08-Jul-17 02:37 64.460122 -168.650253 262 32023ft 520kts
08-Jul-17 02:38 64.460122 -168.650253 262 32023ft 520kts
08-Jul-17 02:39 64.460122 -168.650253 262 32023ft 520kts
08-Jul-17 02:40 64.460122 -168.650253 262 32023ft 520kts
08-Jul-17 02:41 64.460122 -168.650253 262 32023ft 520kts
08-Jul-17 02:42 64.460122 -168.650253 262 32023ft 520kts
08-Jul-17 02:43 64.460122 -168.650253 262 32023ft 520kts
08-Jul-17 02:44 64.460122 -168.650253 262 32023ft 520kts
08-Jul-17 02:45 64.460122 -168.650253 262 32023ft 520kts
08-Jul-17 02:46 64.460122 -168.650253 262 32023ft 520kts
08-Jul-17 02:47 64.460122 -168.650253 262 32023ft 520kts
08-Jul-17 02:48 64.460122 -168.650253 262 32023ft 520kts
08-Jul-17 02:49 64.460122 -168.650253 262 32023ft 520kts
08-Jul-17 02:50 64.460122 -168.650253 262 32023ft 520kts
08-Jul-17 02:51 64.460122 -168.650253 262 32023ft 520kts
08-Jul-17 02:52 64.460122 -168.650253 262 32023ft 520kts
08-Jul-17 02:53 64.460122 -168.650253 262 32023ft 520kts
08-Jul-17 02:54 64.460122 -168.650253 262 32023ft 520kts
08-Jul-17 02:55 64.460122 -168.650253 262 32023ft 520kts
08-Jul-17 02:56 64.460122 -168.650253 262 32023ft 520kts
08-Jul-17 02:57 64.460122 -168.650253 262 32023ft 520kts
08-Jul-17 02:58 64.460122 -168.650253 262 32023ft 520kts
08-Jul-17 02:59 64.460122 -168.650253 262 32023ft 520kts
08-Jul-17 03:00 64.460122 -168.650253 262 32023ft 520kts
08-Jul-17 03:01 64.460122 -168.650253 262 32023ft 520kts
08-Jul-17 03:02 64.460122 -168.650253 262 32023ft 520kts
08-Jul-17 03:03 64.460122 -168.650253 262 32023ft 520kts
08-Jul-17 03:04 64.460122 -168.650253 262 32023ft 520kts
08-Jul-17 03:05 64.460122 -168.650253 262 32023ft 520kts
08-Jul-17 03:06 64.460122 -168.650253 262 32023ft 520kts
08-Jul-17 03:07 64.460122 -168.650253 262 32023ft 520kts
08-Jul-17 03:08 64.460122 -168.650253 262 32023ft 520kts
08-Jul-17 03:09 64.460122 -168.650253 262 32023ft 520kts
08-Jul-17 03:10 64.460122 -168.650253 262 32023ft 520kts
08-Jul-17 03:11 64.460122 -168.650253 262 32023ft 520kts
08-Jul-17 03:12 64.460122 -168.650253 262 32023ft 520kts
08-Jul-17 03:13 64.460122 -168.650253 262 32023ft 520kts
08-Jul-17 03:14 64.460122 -168.650253 262 32023ft 520kts
08-Jul-17 03:15 64.460122 -168.650253 262 32023ft 520kts
08-Jul-17 03:16 64.460122 -168.650253 262 32023ft 520kts
08-Jul-17 03:17 64.460122 -168.650253 262 32023ft 520kts
08-Jul-17 03:18 64.460122 -168.650253 262 32023ft 520kts
08-Jul-17 03:19 64.460122 -168.650253 262 32023ft 520kts
08-Jul-17 03:20 64.460122 -168.650253 262 32023ft 520kts
08-Jul-17 03:21 64.460122 -168.650253 262 32023ft 520kts
08-Jul-17 03:22 64.460122 -168.650253 262 32023ft 520kts
08-Jul-17 03:23 64.460122 -168.650253 262 32023ft 520kts
08-Jul-17 03:24 64.460122 -168.650253 262 32023ft 520kts
08-Jul-17 03:25 64.460122 -168.650253 262 32023ft 520kts
08-Jul-17 03:26 64.460122 -168.650253 262 32023ft 520kts
08-Jul-17 03:27 64.460122 -168.650253 262 32023ft 520kts
08-Jul-17 03:28 64.460122 -168.650253 262 32023ft 520kts
08-Jul-17 03:29 64.460122 -168.650253 262 32023ft 520kts
08-Jul-17 03:30 64.460122 -168.650253 262 32023ft 520kts
08-Jul-17 03:31 64.460122 -168.650253 262 32023ft 520kts
08-Jul-17 03:32 64.460122 -168.650253 262 32023ft 520kts
08-Jul-17 03:33 64.460122 -168.650253 262 32023ft 520kts
08-Jul-17 03:34 64.460122 -168.650253 262 32023ft 520kts
08-Jul-17 03:35 64.460122 -168.650253 262 32023ft 520kts
08-Jul-17 03:36 64.460122 -168.650253 262 32023ft 520kts
08-Jul-17 03:37 64.460122 -168.650253 262 32023ft 520kts
08-Jul-17 03:38 64.460122 -168.650253 262 32023ft 520kts
08-Jul-17 03:39 64.460122 -168.650253 262 32023ft 520kts
08-Jul-17 03:40 64.460122 -168.650253 262 32023ft 520kts
08-Jul-17 03:41 64.460122 -168.650253 262 32023ft 520kts
08-Jul-17 03:42 64.460122 -168.650253 262 32023ft 520kts
08-Jul-17 03:43 64.460122 -168.650253 262 32023ft 520kts
08-Jul-17 03:44 64.460122 -168.650253 262 32023ft 520kts
08-Jul-17 03:45 64.460122 -168.650253 262 32023ft 520kts
08-Jul-17 03:46 64.460122 -168.650253 262 32023ft 520kts
08-Jul-17 03:47 64.460122 -168.650253 262 32023ft 520kts
08-Jul-17 03:48 64.460122 -168.650253 262 32023ft 520kts
08-Jul-17 03:49 64.460122 -168.650253 262 32023ft 520kts
08-Jul-17 03:50 64.460122 -168.650253 262 32023ft 520kts
08-Jul-17 03:51 64.460122 -168.650253 262 32023ft 520kts
08-Jul-17 03:52 64.460122 -168.650253 262 32023ft 520kts
08-Jul-17 03:53 64.460122 -168.650253 262 32023ft 520kts
08-Jul-17 03:54 64.460122 -168.650253 262 32023ft 520kts
08-Jul-17 03:55 64.460122 -168.650253 262 32023ft 520kts
08-Jul-17 03:56 64.460122 -168.650253 262 32023ft 520kts
08-Jul-17 03:57 64.460122 -168.650253 262 32023ft 520kts
08-Jul-17 03:58 64.460122 -168.650253 262 32023ft 520kts
08-Jul-17 03:59 64.460122 -168.650253 262 32023ft 520kts
08-Jul-17 04:00 64.460122 -168.650253 262 32023ft 520kts
08-Jul-17 04:01 64.460122 -168.650253 262 32023ft 520kts
08-Jul-17 04:02 64.460122 -168.650253 262 32023ft 520kts
08-Jul-17 04:03 64.460122 -168.650253 262 32023ft 520kts
08-Jul-17 04:04 64.460122 -168.650253 262 32023ft 520kts
08-Jul-17 04:05 64.460122 -168.650253 262 32023ft 520kts
08-Jul-17 04:06 64.460122 -168.650253 262 32023ft 520kts
08-Jul-17 04:07 64.460122 -168.650253 262 32023ft 520kts
08-Jul-17 04:08 64.460122 -168.650253 262 32023ft 520kts
08-Jul-17 04:09 64.460122 -168.650253 262 32023ft 520kts
08-Jul-17 04:10 64.460122 -168.650253 262 32023ft 520kts
08-Jul-17 04:11 64.460122 -168.650253 262 32023ft 520kts
08-Jul-17 04:12 64.460122 -168.650253 262 32023ft 520kts
08-Jul-17 04:13 64.460122 -168.650253 262 32023ft 520kts
08-Jul-17 04:14 64.460122 -168.650253 262 32023ft 520kts
08-Jul-17 04:15 64.460122 -168.650253 262 32023ft 520kts
08-Jul-17 04:16 64.460122 -168.650253 262 32023ft 520kts
08-Jul-17 04:17 64.460122 -168.650253 262 32023ft 520kts
08-Jul-17 04:18 64.460122 -168.650253 262 32023ft 520kts
08-Jul-17 04:19 64.460122 -168.650253 262 32023ft 520kts
08-Jul-17 04:20 64.460122 -168.650253 262 32023ft 520kts
08-Jul-17 04:21 64.460122 -168.650253 262 32023ft 520kts
08-Jul-17 04:22 64.460122 -168.650253 262 32023ft 520kts
08-Jul-17 04:23 64.460122 -168.650253 262 32023ft 520kts
08-Jul-17 04:24 64.460122 -168.650253 262 32023ft 520kts
08-Jul-17 04:25 64.460122 -168.650253 262 32023ft 520kts
08-Jul-17 04:26 64.460122 -168.650253 262 32023ft 520kts
08-Jul-17 04:27 64.460122 -168.650253 262 32023ft 520kts
08-Jul-17 04:28 64.460122 -168.650253 262 32023ft 520kts
08-Jul-17 04:29 64.460122 -168.650253 262 32023ft 520kts
08-Jul-17 04:30 64.460122 -168.650253 262 32023ft 520kts
08-Jul-17 04:31 64.460122 -168.650253 262 32023ft 520kts
08-Jul-17 04:32 64.460122 -168.650253 262 32023ft 520kts
08-Jul-17 04:33 64.460122 -168.650253 262 32023ft 520kts
08-Jul-17 04:34 64.460122 -168.650253 262 32023ft 520kts
08-Jul-17 04:35 64.460122 -168.650253 262 32023ft 520kts
08-Jul-17 04:36 64.460122 -168.650253 262 32023ft 520kts
08-Jul-17 04:37 64.460122 -168.650253 262 32023ft 520kts
08-Jul-17 04:38 64.460122 -168.650253 262 32023ft 520kts
08-Jul-17 04:39 64.460122 -168.650253 262 32023ft 520kts
08-Jul-17 04:40 64.460122 -168.650253 262 32023ft 520kts
08-Jul-17 04:41 64.460122 -168.650253 262 32023ft 520kts
08-Jul-17 04:42 64.460122 -168.650253 262 32023ft 520kts
08-Jul-17 04:43 64.460122 -168.650253 262 32023ft 520kts
08-Jul-17 04:44 64.460122 -168.650253 262 32023ft 520kts
08-Jul-17 04:45 64.460122 -168.650253 262 32023ft 520kts
08-Jul-17 04:46 64.459579 -168.675192 262 32023ft 521kts
08-Jul-17 04:47 64.452133 -169.009007 262 32047ft 524kts
08-Jul-17 04:48 64.444651 -169.345896 262 32563ft 524kts
08-Jul-17 04:49 64.427620 -170.014049 261 33973ft 518kts
08-Jul-17 04:50 64.417829 -170.345841 261 33994ft 518kts
08-Jul-17 04:51 64.357191 -172.170163 265 33924ft 518kts
08-Jul-17 04:52 64.383664 -173.309380 267 33967ft 521kts
08-Jul-17 04:53 64.377943 -174.209496 263 33960ft 516kts
08-Jul-17 04:54 64.439243 -175.448880 284 33971ft 529kts
08-Jul-17 04:55 64.529726 -176.725691 270 33988ft 520kts
08-Jul-17 04:56 64.584242 -177.860027 274 33964ft 521kts
08-Jul-17 04:57 64.635682 -178.845091 270 33980ft 519kts
08-Jul-17 04:58 64.703687 179.182585 268 34000ft 516kts
08-Jul-17 04:59 64.744906 177.208047 266 32534ft 510kts
08-Jul-17 05:00 64.749515 176.346083 266 34050ft 408kts
08-Jul-17 05:01 64.749893 176.075182 265 34003ft 422kts
08-Jul-17 05:02 64.749475 175.795857 266 34012ft 439kts
08-Jul-17 05:03 64.749723 175.503696 267 34013ft 460kts
08-Jul-17 05:04 64.749833 175.205237 266 33997ft 460kts
08-Jul-17 05:05 64.749301 174.909162 266 33984ft 460kts
08-Jul-17 05:06 64.748063 174.609447 266 33995ft 460kts
08-Jul-17 05:07 64.746243 174.313089 265 33983ft 460kts
08-Jul-17 05:08 64.743864 174.014799 265 33995ft 460kts
08-Jul-17 05:09 64.740856 173.715658 265 33995ft 460kts
08-Jul-17 05:10 64.737237 173.417128 265 33994ft 460kts
08-Jul-17 05:11 64.733088 173.120222 264 33997ft 460kts
08-Jul-17 05:12 64.728342 172.821313 264 33996ft 460kts
08-Jul-17 05:13 64.722962 172.522545 264 34012ft 458kts
08-Jul-17 05:14 64.716599 172.226534 263 33997ft 459kts
08-Jul-17 05:15 64.709840 171.930212 263 33956ft 459kts
08-Jul-17 05:16 64.702526 171.633937 263 33945ft 459kts
08-Jul-17 05:17 64.694731 171.342064 262 33940ft 459kts
08-Jul-17 05:18 64.686291 171.045812 262 33942ft 459kts
08-Jul-17 05:19 64.677182 170.748472 262 33941ft 459kts
08-Jul-17 05:20 64.667548 170.452215 261 33938ft 458kts
08-Jul-17 05:21 64.640589 170.165927 251 33943ft 454kts
08-Jul-17 05:22 64.610841 169.930777 251 33941ft 454kts
08-Jul-17 05:23 64.576234 169.648363 252 33940ft 455kts
08-Jul-17 05:24 64.536509 169.319720 251 33940ft 454kts
08-Jul-17 05:25 64.502016 169.038310 251 33941ft 454kts
08-Jul-17 05:26 64.466708 168.756695 251 33939ft 454kts
08-Jul-17 05:27 64.436935 168.523568 251 33938ft 454kts
08-Jul-17 05:28 64.400826 168.245015 250 33941ft 454kts
08-Jul-17 05:29 64.364174 167.965984 250 33939ft 454kts
08-Jul-17 05:30 64.326913 167.688133 250 33938ft 454kts
08-Jul-17 05:31 64.289103 167.411310 250 33937ft 454kts
08-Jul-17 05:32 64.251091 167.136611 249 33992ft 454kts
08-Jul-17 05:33 64.212275 166.860502 249 33992ft 454kts
08-Jul-17 05:34 64.172951 166.586060 249 33990ft 454kts
08-Jul-17 05:35 64.133107 166.312503 249 33992ft 454kts
08-Jul-17 05:36 64.092986 166.040059 249 33991ft 454kts
08-Jul-17 05:37 64.052041 165.767099 249 33990ft 454kts
08-Jul-17 05:38 64.010656 165.495887 249 33822ft 454kts
08-Jul-17 05:39 63.968803 165.225601 248 33776ft 454kts
08-Jul-17 05:40 63.926408 164.955442 248 33774ft 454kts
08-Jul-17 05:41 63.882621 164.688837 246 33781ft 454kts
08-Jul-17 05:42 63.833201 164.425810 245 33779ft 454kts
08-Jul-17 05:43 63.783439 164.164090 244 33781ft 454kts
08-Jul-17 05:44 63.733864 163.902713 245 33780ft 454kts
08-Jul-17 05:45 63.683800 163.642443 245 33778ft 454kts
08-Jul-17 05:46 63.633026 163.382279 244 33777ft 454kts
08-Jul-17 05:47 63.582269 163.124485 244 33779ft 454kts
08-Jul-17 05:48 63.530745 162.866181 244 33778ft 454kts
08-Jul-17 05:49 63.478755 162.609688 244 33777ft 454kts
08-Jul-17 05:50 63.426134 162.353362 244 33775ft 454kts
08-Jul-17 05:51 63.373639 162.099530 243 33778ft 454kts
08-Jul-17 05:52 63.320222 161.844802 243 33776ft 454kts
08-Jul-17 05:53 63.266343 161.591711 243 33775ft 454kts
08-Jul-17 05:54 63.213223 161.345232 242 33774ft 454kts
08-Jul-17 05:55 63.149735 161.052781 242 33777ft 453kts
08-Jul-17 05:56 62.816657 159.588603 241 33799ft 453kts
08-Jul-17 05:57 62.614637 158.751735 241 33771ft 453kts
08-Jul-17 05:58 62.555900 158.510342 240 33777ft 453kts
08-Jul-17 05:59 62.496734 158.271753 240 33780ft 453kts
08-Jul-17 06:00 62.436892 158.032378 240 33778ft 453kts
08-Jul-17 06:01 62.376674 157.794943 240 33777ft 453kts
08-Jul-17 06:02 62.315842 157.558021 240 33775ft 453kts
08-Jul-17 06:03 62.037389 156.502455 239 33868ft 448kts
08-Jul-17 06:04 61.759178 155.500387 238 33695ft 448kts
08-Jul-17 06:05 61.694779 155.275675 237 33782ft 452kts
08-Jul-17 06:06 61.630117 155.049470 237 33779ft 452kts
08-Jul-17 06:07 61.564930 154.824376 237 33778ft 452kts
08-Jul-17 06:08 61.358094 154.125633 236 33792ft 452kts
08-Jul-17 06:09 60.955607 152.822169 236 33613ft 452kts
08-Jul-17 06:10 60.821222 152.406529 235 33781ft 451kts
08-Jul-17 06:11 60.751495 152.195396 235 33781ft 451kts
08-Jul-17 06:12 60.681323 151.983411 235 33780ft 451kts
08-Jul-17 06:13 60.610783 151.772771 235 33778ft 451kts
08-Jul-17 06:14 60.539841 151.562990 235 33777ft 451kts
08-Jul-17 06:15 60.468668 151.354440 235 33775ft 451kts
08-Jul-17 06:16 60.398717 151.150210 234 33778ft 451kts
08-Jul-17 06:17 60.327027 150.943231 234 33777ft 451kts
08-Jul-17 06:18 60.254801 150.737310 234 33775ft 451kts
08-Jul-17 06:19 60.182190 150.532052 234 33774ft 451kts
08-Jul-17 06:20 60.109577 150.328369 233 33775ft 451kts
08-Jul-17 06:21 60.036796 150.124481 233 33775ft 451kts
08-Jul-17 06:22 59.963300 149.922216 233 33774ft 451kts
08-Jul-17 06:23 59.890154 149.720676 233 33777ft 451kts
08-Jul-17 06:24 59.815662 149.521096 233 33778ft 451kts
08-Jul-17 06:25 59.741660 149.322101 233 33780ft 451kts
08-Jul-17 06:26 59.667493 149.122702 232 33787ft 450kts
08-Jul-17 06:27 59.589851 148.929559 231 33806ft 450kts
08-Jul-17 06:28 59.511265 148.737709 231 33804ft 450kts
08-Jul-17 06:29 59.433158 148.547165 231 33797ft 447kts
08-Jul-17 06:30 59.354558 148.356672 231 33801ft 450kts
08-Jul-17 06:31 59.276066 148.167007 230 33804ft 450kts
08-Jul-17 06:32 59.197216 147.978488 230 33803ft 450kts
08-Jul-17 06:33 59.117705 147.790614 230 33802ft 450kts
08-Jul-17 06:34 59.037865 147.603509 230 33800ft 450kts
08-Jul-17 06:35 58.957779 147.417383 230 33799ft 450kts
08-Jul-17 06:36 58.878173 147.233146 230 33810ft 450kts
08-Jul-17 06:37 58.797329 147.048984 229 33808ft 450kts
08-Jul-17 06:38 58.716768 146.866079 230 33806ft 450kts
08-Jul-17 06:39 58.635778 146.682953 230 33805ft 450kts
08-Jul-17 06:40 58.554637 146.500882 230 33803ft 450kts
08-Jul-17 06:41 58.473468 146.320159 229 33806ft 450kts
08-Jul-17 06:42 58.392262 146.139606 229 33805ft 450kts
08-Jul-17 06:43 58.310396 145.960005 229 33804ft 450kts
08-Jul-17 06:44 58.228290 145.781736 229 33802ft 449kts
08-Jul-17 06:45 58.146270 145.604154 229 33801ft 449kts
08-Jul-17 06:46 58.063787 145.426725 229 33799ft 449kts
08-Jul-17 06:47 57.981450 145.250647 228 33803ft 449kts
08-Jul-17 06:48 57.899216 145.075565 228 33802ft 449kts
08-Jul-17 06:49 57.815644 144.902255 228 33807ft 449kts
08-Jul-17 06:50 57.731706 144.728657 228 33805ft 449kts
08-Jul-17 06:51 57.648033 144.555545 228 33804ft 449kts
08-Jul-17 06:52 57.566428 144.387998 235 33805ft 440kts
08-Jul-17 06:53 57.482676 144.215740 234 33823ft 459kts
08-Jul-17 06:54 57.396761 144.041327 234 34439ft 457kts
08-Jul-17 06:55 57.311331 143.869916 234 35460ft 451kts
08-Jul-17 06:56 57.226587 143.700801 234 35798ft 449kts
08-Jul-17 06:57 57.141702 143.532581 234 35803ft 449kts
08-Jul-17 06:58 57.056663 143.365388 234 35802ft 449kts
08-Jul-17 06:59 56.971341 143.198086 234 35810ft 450kts
08-Jul-17 07:00 56.885484 143.031825 233 35804ft 451kts
08-Jul-17 07:01 56.798846 142.867693 233 35796ft 447kts
08-Jul-17 07:02 56.712909 142.703146 234 35801ft 450kts
08-Jul-17 07:03 56.626548 142.538677 234 35800ft 450kts
08-Jul-17 07:04 56.540091 142.375366 233 35799ft 450kts
08-Jul-17 07:05 56.453741 142.212679 233 35807ft 451kts
08-Jul-17 07:06 56.366778 142.050207 233 35806ft 451kts
08-Jul-17 07:07 56.279531 141.889017 233 35805ft 451kts
08-Jul-17 07:08 56.191883 141.728250 233 35804ft 451kts
08-Jul-17 07:09 56.104899 141.566554 233 35803ft 450kts
08-Jul-17 07:10 56.018418 141.405491 233 35802ft 450kts
08-Jul-17 07:11 55.933299 141.247930 233 35810ft 451kts
08-Jul-17 07:12 55.846826 141.089967 231 35774ft 455kts
08-Jul-17 07:13 55.756540 140.927623 229 35827ft 470kts
08-Jul-17 07:14 55.663378 140.759801 229 35805ft 480kts
08-Jul-17 07:15 55.570057 140.592620 229 35803ft 480kts
08-Jul-17 07:16 55.476198 140.425586 229 35803ft 480kts
08-Jul-17 07:17 55.382749 140.259976 229 35807ft 481kts
08-Jul-17 07:18 55.288492 140.094060 228 35807ft 481kts
08-Jul-17 07:19 55.193956 139.929248 229 35806ft 481kts
08-Jul-17 07:20 55.098985 139.764704 229 35726ft 481kts
08-Jul-17 07:21 55.003981 139.601446 228 35725ft 482kts
08-Jul-17 07:22 54.908458 139.438474 228 35725ft 482kts
08-Jul-17 07:23 54.813642 139.279361 227 35724ft 483kts
08-Jul-17 07:24 54.717408 139.117747 228 35723ft 483kts
08-Jul-17 07:25 54.621307 138.956936 228 35723ft 483kts
08-Jul-17 07:26 54.524854 138.796807 228 35723ft 483kts
08-Jul-17 07:27 54.427878 138.637000 228 35723ft 483kts
08-Jul-17 07:28 54.330805 138.478141 227 35723ft 483kts
08-Jul-17 07:29 54.234143 138.320990 227 35726ft 484kts
08-Jul-17 07:30 54.136883 138.162746 227 35727ft 484kts
08-Jul-17 07:31 54.039277 138.005924 227 35727ft 484kts
08-Jul-17 07:32 53.941138 137.849798 227 35726ft 484kts
08-Jul-17 07:33 53.843325 137.696063 226 35721ft 485kts
08-Jul-17 07:34 53.744072 137.541613 227 35721ft 485kts
08-Jul-17 07:35 53.643918 137.390365 221 35724ft 488kts
08-Jul-17 07:36 53.533483 137.258895 218 35725ft 490kts
08-Jul-17 07:37 53.422113 137.128075 219 35725ft 489kts
08-Jul-17 07:38 53.311752 136.995766 219 35725ft 490kts
08-Jul-17 07:39 53.219931 136.886527 219 35725ft 490kts
08-Jul-17 07:40 53.090991 136.732367 219 35725ft 490kts
08-Jul-17 07:41 52.980465 136.600207 219 35725ft 490kts
08-Jul-17 07:42 52.870890 136.470550 219 35720ft 490kts
08-Jul-17 07:43 52.760217 136.342030 218 35721ft 490kts
08-Jul-17 07:44 52.667965 136.233518 218 35724ft 491kts
08-Jul-17 07:45 52.557022 136.103627 218 35724ft 491kts
08-Jul-17 07:46 52.445680 135.975001 218 35724ft 491kts
08-Jul-17 07:47 52.334432 135.847285 218 35724ft 491kts
08-Jul-17 07:48 52.222534 135.719555 218 35724ft 491kts
08-Jul-17 07:49 52.110883 135.592979 218 35724ft 491kts
08-Jul-17 07:50 51.998876 135.466785 218 35725ft 491kts
08-Jul-17 07:51 51.888849 135.343587 217 35723ft 492kts
08-Jul-17 07:52 51.776740 135.219164 217 35723ft 492kts
08-Jul-17 07:53 51.664164 135.094521 217 35724ft 492kts
08-Jul-17 07:54 51.551423 134.970721 217 35724ft 492kts
08-Jul-17 07:55 51.438634 134.847522 217 35724ft 492kts
08-Jul-17 07:56 51.325874 134.724977 217 35724ft 492kts
08-Jul-17 07:57 51.212453 134.602629 217 35724ft 492kts
08-Jul-17 07:58 51.099296 134.481480 217 35724ft 492kts
08-Jul-17 07:59 50.985557 134.360263 217 35724ft 492kts
08-Jul-17 08:00 50.875730 134.243245 216 35723ft 493kts
08-Jul-17 08:01 50.761815 134.124200 216 35723ft 493kts
08-Jul-17 08:02 50.647869 134.005277 216 35723ft 493kts
08-Jul-17 08:03 50.533621 133.886130 216 35724ft 493kts
08-Jul-17 08:04 50.419335 133.768186 216 35724ft 493kts
08-Jul-17 08:05 50.305381 133.651067 216 35724ft 493kts
08-Jul-17 08:06 50.193218 133.536611 214 35719ft 472kts
08-Jul-17 08:07 50.083063 133.424802 214 35722ft 474kts
08-Jul-17 08:08 49.973678 133.314586 213 35729ft 475kts
08-Jul-17 08:09 49.864592 133.204478 213 35726ft 474kts
08-Jul-17 08:10 49.753827 133.095269 213 35725ft 475kts
08-Jul-17 08:11 49.642593 132.985273 213 35724ft 475kts
08-Jul-17 08:12 49.531691 132.875750 213 35724ft 475kts
08-Jul-17 08:13 49.420738 132.767357 213 35723ft 475kts
08-Jul-17 08:14 49.309449 132.659013 213 35723ft 475kts
08-Jul-17 08:15 49.198050 132.551042 213 35722ft 475kts
08-Jul-17 08:16 49.086574 132.443587 213 35722ft 475kts
08-Jul-17 08:17 48.975448 132.337017 212 35723ft 475kts
08-Jul-17 08:18 48.865145 132.231261 212 35726ft 475kts
08-Jul-17 08:19 48.753299 132.126316 212 35725ft 475kts
08-Jul-17 08:20 48.641060 132.021079 212 35724ft 475kts
08-Jul-17 08:21 48.528917 131.916052 212 35724ft 475kts
08-Jul-17 08:22 48.416839 131.811633 212 35723ft 475kts
08-Jul-17 08:23 48.304589 131.707652 212 35723ft 475kts
08-Jul-17 08:24 48.192221 131.604066 212 35722ft 475kts
08-Jul-17 08:25 48.079877 131.501128 212 35722ft 475kts
08-Jul-17 08:26 47.967045 131.398536 212 35721ft 475kts
08-Jul-17 08:27 47.857728 131.299286 212 35730ft 480kts
08-Jul-17 08:28 47.744249 131.197062 212 35725ft 479kts
08-Jul-17 08:29 47.629382 131.097390 210 35728ft 477kts
08-Jul-17 08:30 47.514188 131.004395 209 35725ft 473kts
08-Jul-17 08:31 47.398839 130.911302 210 35724ft 473kts
08-Jul-17 08:32 47.283946 130.818389 210 35723ft 473kts
08-Jul-17 08:33 47.168886 130.725786 210 35722ft 473kts
08-Jul-17 08:34 47.054039 130.633863 210 35722ft 472kts
08-Jul-17 08:35 46.939266 130.542446 210 35645ft 472kts
08-Jul-17 08:36 46.835500 130.433669 234 35637ft 469kts
08-Jul-17 08:37 46.779877 130.265095 250 35621ft 468kts
08-Jul-17 08:38 46.736958 130.086108 249 35617ft 468kts
08-Jul-17 08:39 46.690119 129.910101 247 35616ft 467kts
08-Jul-17 08:40 46.641265 129.734954 247 35615ft 467kts
08-Jul-17 08:41 46.531886 129.345896 247 35607ft 465kts
08-Jul-17 08:42 46.267101 128.424272 247 35589ft 463kts
08-Jul-17 08:43 46.217080 128.254956 246 35616ft 463kts
08-Jul-17 08:44 46.166799 128.084677 246 35616ft 462kts
08-Jul-17 08:45 46.116106 127.914871 246 35615ft 462kts
08-Jul-17 08:46 46.065089 127.745365 246 35614ft 461kts
08-Jul-17 08:47 46.013886 127.576434 246 35613ft 461kts
08-Jul-17 08:48 45.962552 127.408222 247 35611ft 460kts
08-Jul-17 08:49 45.914132 127.239577 247 35615ft 460kts
08-Jul-17 08:50 45.866084 127.072701 246 35617ft 460kts
08-Jul-17 08:51 45.816282 126.904205 247 35617ft 459kts
08-Jul-17 08:52 45.766881 126.735570 247 35616ft 459kts
08-Jul-17 08:53 45.717658 126.568035 247 35614ft 458kts
08-Jul-17 08:54 45.668080 126.400476 247 35613ft 458kts
08-Jul-17 08:55 45.616471 126.235593 240 35621ft 458kts
08-Jul-17 08:56 45.545447 126.085071 234 35617ft 458kts
08-Jul-17 08:57 45.471385 125.938358 235 35616ft 457kts
08-Jul-17 08:58 45.398771 125.789916 236 35615ft 457kts
08-Jul-17 08:59 45.183523 125.351133 236 35619ft 456kts
08-Jul-17 09:00 44.754994 124.493193 235 35670ft 454kts
08-Jul-17 09:01 44.477921 123.960142 238 35670ft 439kts
08-Jul-17 09:02 44.406268 123.819496 238 35695ft 444kts
08-Jul-17 09:03 44.333988 123.680136 238 35694ft 444kts
08-Jul-17 09:04 43.956049 122.959606 237 35755ft 445kts
08-Jul-17 09:05 43.722449 122.511809 239 35685ft 443kts
08-Jul-17 09:06 43.651743 122.372875 238 35682ft 443kts
08-Jul-17 09:07 43.581499 122.237467 238 35673ft 443kts
08-Jul-17 09:08 43.506506 122.100468 235 35671ft 444kts
08-Jul-17 09:09 43.430016 121.967529 235 35670ft 444kts
08-Jul-17 09:10 43.024427 121.267332 235 35664ft 444kts
08-Jul-17 09:11 42.611370 120.556848 236 35659ft 443kts
08-Jul-17 09:12 42.535978 120.425577 236 35663ft 443kts
08-Jul-17 09:13 42.460588 120.295951 235 35674ft 443kts
08-Jul-17 09:14 42.384422 120.165081 235 35672ft 443kts
08-Jul-17 09:15 42.308041 120.035215 235 35670ft 443kts
08-Jul-17 09:16 42.231360 119.905698 235 35669ft 442kts
08-Jul-17 09:17 42.154732 119.776816 235 35668ft 442kts
08-Jul-17 09:18 42.077869 119.648074 235 35666ft 442kts
08-Jul-17 09:19 42.000968 119.520002 235 35683ft 430kts
08-Jul-17 09:20 41.925560 119.394319 236 35703ft 442kts
08-Jul-17 09:21 41.850859 119.266797 235 35594ft 442kts
08-Jul-17 09:22 41.775023 119.138313 235 35591ft 441kts
08-Jul-17 09:23 41.698802 119.009400 235 35589ft 441kts
08-Jul-17 09:24 41.622753 118.881261 235 35588ft 441kts
08-Jul-17 09:25 41.546452 118.753218 235 35586ft 441kts
08-Jul-17 09:26 41.470291 118.625954 235 35585ft 440kts
08-Jul-17 09:27 41.402526 118.492420 248 35591ft 434kts
08-Jul-17 09:28 41.359773 118.346357 251 35582ft 432kts
08-Jul-17 09:29 41.318644 118.200524 250 35591ft 432kts
08-Jul-17 09:30 41.274285 118.052463 250 35590ft 432kts
08-Jul-17 09:31 41.229162 117.904722 250 35588ft 432kts
08-Jul-17 09:32 41.183919 117.757164 250 35586ft 432kts
08-Jul-17 09:33 41.138626 117.610037 250 35584ft 432kts
08-Jul-17 09:34 41.093100 117.463071 250 35582ft 431kts
08-Jul-17 09:35 41.047748 117.317567 249 35593ft 431kts
08-Jul-17 09:36 40.996346 117.174798 234 35598ft 438kts
08-Jul-17 09:37 40.896935 117.082905 211 35595ft 457kts
08-Jul-17 09:38 40.782215 117.012447 213 35590ft 456kts
08-Jul-17 09:39 40.668577 116.939554 210 35588ft 458kts
08-Jul-17 09:40 40.552009 116.874100 209 34756ft 455kts
08-Jul-17 09:41 40.437348 116.809462 209 31673ft 445kts
08-Jul-17 09:42 40.324208 116.749462 199 28659ft 440kts
08-Jul-17 09:43 40.202420 116.737777 184 25669ft 442kts
08-Jul-17 09:44 40.081727 116.737462 186 22698ft 433kts
08-Jul-17 09:45 39.980122 116.686087 240 20106ft 385kts
08-Jul-17 09:46 39.993621 116.566562 318 18384ft 357kts
08-Jul-17 09:47 40.082677 116.521656 340 16948ft 333kts
08-Jul-17 09:48 40.167426 116.493226 340 15694ft 295kts
08-Jul-17 09:49 40.245353 116.467719 351 14773ft 293kts
08-Jul-17 09:50 40.303086 116.535409 87 14021ft 317kts
08-Jul-17 09:51 40.256006 116.618775 166 13451ft 315kts
08-Jul-17 09:52 40.167153 116.642607 174 12941ft 326kts
08-Jul-17 09:53 40.078589 116.665407 172 12129ft 323kts
08-Jul-17 09:54 39.991562 116.690775 171 11329ft 320kts
08-Jul-17 09:55 39.905841 116.716487 171 10529ft 309kts
08-Jul-17 09:56 39.826023 116.740327 171 9652ft 294kts
08-Jul-17 09:57 39.746751 116.763883 171 8980ft 291kts
08-Jul-17 09:58 39.667861 116.784239 191 8283ft 283kts
08-Jul-17 09:59 39.628874 116.729715 270 7675ft 267kts
08-Jul-17 10:00 39.676864 116.660692 335 7140ft 278kts
08-Jul-17 10:01 39.753312 116.645373 351 6016ft 273kts
08-Jul-17 10:02 39.822942 116.636602 349 4692ft 226kts
08-Jul-17 10:03 39.878378 116.628480 348 3640ft 180kts
08-Jul-17 10:04 39.928338 116.620341 350 2688ft 181kts
08-Jul-17 10:05 39.977343 116.612242 355 1687ft 174kts
08-Jul-17 10:06 40.023140 116.605201 354 765ft 159kts
08-Jul-17 10:07 40.065541 116.598562 353 128ft 127kts
08-Jul-17 10:08 40.077926 116.598983 155 128ft 13kts
08-Jul-17 10:09 40.074145 116.599580 171 128ft 19kts
08-Jul-17 10:10 40.067103 116.600745 174 128ft 30kts
08-Jul-17 10:11 40.061834 116.604104 85 128ft 20kts
08-Jul-17 10:12 40.060047 116.606941 65 128ft 0kts
08-Jul-17 10:13 40.060047 116.606941 65 128ft 0kts

Navigation Log

Ident Type
Flight plan parsing failed, navigation log unavailable